sensor_id;sensor_type;location;lat;lon;timestamp;pressure;altitude;pressure_sealevel;temperature;humidity
76853;BME280;65825;52.232;10.566;2023-08-06T00:00:22;99955.97;;;15.14;100.00
76853;BME280;65825;52.232;10.566;2023-08-06T00:02:48;99959.78;;;15.24;100.00
76853;BME280;65825;52.232;10.566;2023-08-06T00:05:13;99961.84;;;15.19;100.00
76853;BME280;65825;52.232;10.566;2023-08-06T00:07:39;99949.22;;;15.22;100.00
76853;BME280;65825;52.232;10.566;2023-08-06T00:10:04;99945.25;;;15.29;100.00
76853;BME280;65825;52.232;10.566;2023-08-06T00:12:30;99949.13;;;15.24;100.00
76853;BME280;65825;52.232;10.566;2023-08-06T00:14:55;99939.53;;;15.21;100.00
76853;BME280;65825;52.232;10.566;2023-08-06T00:17:20;99933.66;;;15.30;100.00
76853;BME280;65825;52.232;10.566;2023-08-06T00:19:46;99934.03;;;15.24;100.00
76853;BME280;65825;52.232;10.566;2023-08-06T00:22:11;99923.03;;;15.30;100.00
76853;BME280;65825;52.232;10.566;2023-08-06T00:24:36;99918.44;;;15.32;100.00
76853;BME280;65825;52.232;10.566;2023-08-06T00:27:02;99901.09;;;15.27;100.00
76853;BME280;65825;52.232;10.566;2023-08-06T00:29:27;99897.47;;;15.28;100.00
76853;BME280;65825;52.232;10.566;2023-08-06T00:31:53;99885.88;;;15.29;100.00
76853;BME280;65825;52.232;10.566;2023-08-06T00:34:18;99897.09;;;15.20;100.00
76853;BME280;65825;52.232;10.566;2023-08-06T00:36:44;99903.94;;;15.24;100.00
76853;BME280;65825;52.232;10.566;2023-08-06T00:39:09;99900.22;;;15.26;100.00
76853;BME280;65825;52.232;10.566;2023-08-06T00:41:34;99891.50;;;15.24;100.00
76853;BME280;65825;52.232;10.566;2023-08-06T00:44:00;99887.88;;;15.25;100.00
76853;BME280;65825;52.232;10.566;2023-08-06T00:46:26;99879.44;;;15.19;100.00
76853;BME280;65825;52.232;10.566;2023-08-06T00:48:51;99877.34;;;15.24;100.00
76853;BME280;65825;52.232;10.566;2023-08-06T00:51:17;99876.03;;;15.17;100.00
76853;BME280;65825;52.232;10.566;2023-08-06T00:53:42;99870.22;;;15.24;100.00
76853;BME280;65825;52.232;10.566;2023-08-06T00:56:08;99853.41;;;15.24;100.00
76853;BME280;65825;52.232;10.566;2023-08-06T00:58:35;99856.84;;;15.26;100.00
76853;BME280;65825;52.232;10.566;2023-08-06T01:01:01;99857.19;;;15.20;100.00
76853;BME280;65825;52.232;10.566;2023-08-06T01:03:27;99864.34;;;15.05;100.00
76853;BME280;65825;52.232;10.566;2023-08-06T01:05:52;99862.44;;;15.07;100.00
76853;BME280;65825;52.232;10.566;2023-08-06T01:08:28;99859.13;;;15.18;100.00
76853;BME280;65825;52.232;10.566;2023-08-06T01:14:07;99855.97;;;15.11;100.00
76853;BME280;65825;52.232;10.566;2023-08-06T01:16:37;99848.22;;;15.08;100.00
76853;BME280;65825;52.232;10.566;2023-08-06T01:19:02;99850.88;;;15.08;100.00
76853;BME280;65825;52.232;10.566;2023-08-06T01:21:28;99846.53;;;14.93;100.00
76853;BME280;65825;52.232;10.566;2023-08-06T01:23:53;99859.63;;;14.82;100.00
76853;BME280;65825;52.232;10.566;2023-08-06T01:26:34;99856.78;;;14.71;100.00
76853;BME280;65825;52.232;10.566;2023-08-06T01:29:10;99859.66;;;14.53;100.00
76853;BME280;65825;52.232;10.566;2023-08-06T01:31:39;99853.16;;;14.58;100.00
76853;BME280;65825;52.232;10.566;2023-08-06T01:34:10;99846.03;;;14.59;100.00
76853;BME280;65825;52.232;10.566;2023-08-06T01:36:38;99839.97;;;14.71;100.00
76853;BME280;65825;52.232;10.566;2023-08-06T01:39:05;99840.72;;;14.73;100.00
76853;BME280;65825;52.232;10.566;2023-08-06T01:41:30;99827.06;;;14.79;100.00
76853;BME280;65825;52.232;10.566;2023-08-06T01:43:55;99827.56;;;14.71;100.00
76853;BME280;65825;52.232;10.566;2023-08-06T01:46:20;99828.09;;;14.76;100.00
76853;BME280;65825;52.232;10.566;2023-08-06T01:48:46;99825.34;;;14.50;100.00
76853;BME280;65825;52.232;10.566;2023-08-06T01:51:11;99816.53;;;14.63;100.00
76853;BME280;65825;52.232;10.566;2023-08-06T01:53:36;99816.44;;;14.65;100.00
76853;BME280;65825;52.232;10.566;2023-08-06T01:56:02;99813.97;;;14.76;100.00
76853;BME280;65825;52.232;10.566;2023-08-06T01:58:27;99807.22;;;14.70;100.00
76853;BME280;65825;52.232;10.566;2023-08-06T02:00:52;99809.91;;;14.56;100.00
76853;BME280;65825;52.232;10.566;2023-08-06T02:03:17;99798.13;;;14.60;100.00
76853;BME280;65825;52.232;10.566;2023-08-06T02:05:43;99799.84;;;14.61;100.00
76853;BME280;65825;52.232;10.566;2023-08-06T02:08:08;99803.06;;;14.66;100.00
76853;BME280;65825;52.232;10.566;2023-08-06T02:10:33;99797.63;;;14.68;100.00
76853;BME280;65825;52.232;10.566;2023-08-06T02:12:59;99804.84;;;14.52;100.00
76853;BME280;65825;52.232;10.566;2023-08-06T02:15:24;99811.88;;;14.53;100.00
76853;BME280;65825;52.232;10.566;2023-08-06T02:17:49;99804.38;;;14.59;100.00
76853;BME280;65825;52.232;10.566;2023-08-06T02:20:15;99805.03;;;14.63;100.00
76853;BME280;65825;52.232;10.566;2023-08-06T02:22:40;99801.53;;;14.48;100.00
76853;BME280;65825;52.232;10.566;2023-08-06T02:25:06;99803.34;;;14.62;100.00
76853;BME280;65825;52.232;10.566;2023-08-06T02:27:31;99799.56;;;14.66;100.00
76853;BME280;65825;52.232;10.566;2023-08-06T02:29:56;99805.72;;;14.66;100.00
76853;BME280;65825;52.232;10.566;2023-08-06T02:32:22;99792.63;;;14.49;100.00
76853;BME280;65825;52.232;10.566;2023-08-06T02:34:47;99797.47;;;14.43;100.00
76853;BME280;65825;52.232;10.566;2023-08-06T02:37:12;99799.19;;;14.44;100.00
76853;BME280;65825;52.232;10.566;2023-08-06T02:39:37;99785.22;;;14.54;100.00
76853;BME280;65825;52.232;10.566;2023-08-06T02:42:06;99776.13;;;14.58;100.00
76853;BME280;65825;52.232;10.566;2023-08-06T02:44:32;99769.56;;;14.50;100.00
76853;BME280;65825;52.232;10.566;2023-08-06T02:46:58;99762.66;;;14.47;100.00
76853;BME280;65825;52.232;10.566;2023-08-06T02:49:23;99767.28;;;14.58;100.00
76853;BME280;65825;52.232;10.566;2023-08-06T02:51:49;99749.84;;;14.54;100.00
76853;BME280;65825;52.232;10.566;2023-08-06T02:54:14;99757.53;;;14.58;100.00
76853;BME280;65825;52.232;10.566;2023-08-06T02:56:43;99765.41;;;14.60;100.00
76853;BME280;65825;52.232;10.566;2023-08-06T02:59:08;99757.22;;;14.63;100.00
76853;BME280;65825;52.232;10.566;2023-08-06T03:01:34;99750.34;;;14.46;100.00
76853;BME280;65825;52.232;10.566;2023-08-06T03:03:59;99749.94;;;14.52;100.00
76853;BME280;65825;52.232;10.566;2023-08-06T03:06:24;99751.72;;;14.66;100.00
76853;BME280;65825;52.232;10.566;2023-08-06T03:08:49;99746.03;;;14.58;100.00
76853;BME280;65825;52.232;10.566;2023-08-06T03:11:15;99739.22;;;14.54;100.00
76853;BME280;65825;52.232;10.566;2023-08-06T03:13:40;99736.19;;;14.60;100.00
76853;BME280;65825;52.232;10.566;2023-08-06T03:16:05;99737.31;;;14.56;100.00
76853;BME280;65825;52.232;10.566;2023-08-06T03:18:30;99737.88;;;14.61;100.00
76853;BME280;65825;52.232;10.566;2023-08-06T03:20:56;99736.84;;;14.63;100.00
76853;BME280;65825;52.232;10.566;2023-08-06T03:23:22;99743.28;;;14.73;100.00
76853;BME280;65825;52.232;10.566;2023-08-06T03:25:47;99743.63;;;14.81;100.00
76853;BME280;65825;52.232;10.566;2023-08-06T03:28:12;99743.69;;;14.67;100.00
76853;BME280;65825;52.232;10.566;2023-08-06T03:30:38;99744.34;;;14.57;100.00
76853;BME280;65825;52.232;10.566;2023-08-06T03:33:03;99757.22;;;14.63;100.00
76853;BME280;65825;52.232;10.566;2023-08-06T03:35:28;99749.81;;;14.68;100.00
76853;BME280;65825;52.232;10.566;2023-08-06T03:37:54;99744.41;;;14.69;100.00
76853;BME280;65825;52.232;10.566;2023-08-06T03:40:19;99745.94;;;14.73;100.00
76853;BME280;65825;52.232;10.566;2023-08-06T03:42:44;99743.53;;;14.83;100.00
76853;BME280;65825;52.232;10.566;2023-08-06T03:45:10;99739.28;;;14.80;100.00
76853;BME280;65825;52.232;10.566;2023-08-06T03:47:35;99740.53;;;14.75;100.00
76853;BME280;65825;52.232;10.566;2023-08-06T03:50:00;99736.53;;;14.68;100.00
76853;BME280;65825;52.232;10.566;2023-08-06T03:52:26;99732.97;;;14.69;100.00
76853;BME280;65825;52.232;10.566;2023-08-06T03:54:51;99722.34;;;14.69;100.00
76853;BME280;65825;52.232;10.566;2023-08-06T03:57:18;99718.22;;;14.77;100.00
76853;BME280;65825;52.232;10.566;2023-08-06T03:59:43;99723.63;;;14.76;100.00
76853;BME280;65825;52.232;10.566;2023-08-06T04:02:08;99713.41;;;14.70;100.00
76853;BME280;65825;52.232;10.566;2023-08-06T04:04:34;99713.50;;;14.68;100.00
76853;BME280;65825;52.232;10.566;2023-08-06T04:06:59;99719.38;;;14.73;100.00
76853;BME280;65825;52.232;10.566;2023-08-06T04:09:24;99722.91;;;14.74;100.00
76853;BME280;65825;52.232;10.566;2023-08-06T04:11:49;99723.72;;;14.74;100.00
76853;BME280;65825;52.232;10.566;2023-08-06T04:14:15;99726.38;;;14.74;100.00
76853;BME280;65825;52.232;10.566;2023-08-06T04:16:40;99735.00;;;14.78;100.00
76853;BME280;65825;52.232;10.566;2023-08-06T04:19:05;99718.00;;;14.80;100.00
76853;BME280;65825;52.232;10.566;2023-08-06T04:21:31;99719.13;;;14.64;100.00
76853;BME280;65825;52.232;10.566;2023-08-06T04:23:56;99718.50;;;14.73;100.00
76853;BME280;65825;52.232;10.566;2023-08-06T04:26:22;99714.38;;;14.69;100.00
76853;BME280;65825;52.232;10.566;2023-08-06T04:28:47;99726.19;;;14.77;100.00
76853;BME280;65825;52.232;10.566;2023-08-06T04:31:13;99728.09;;;14.75;100.00
76853;BME280;65825;52.232;10.566;2023-08-06T04:33:39;99728.22;;;14.74;100.00
76853;BME280;65825;52.232;10.566;2023-08-06T04:36:04;99727.81;;;14.80;100.00
76853;BME280;65825;52.232;10.566;2023-08-06T04:38:29;99732.56;;;14.75;100.00
76853;BME280;65825;52.232;10.566;2023-08-06T04:40:55;99728.47;;;14.83;100.00
76853;BME280;65825;52.232;10.566;2023-08-06T04:43:20;99721.31;;;14.84;100.00
76853;BME280;65825;52.232;10.566;2023-08-06T04:45:49;99728.00;;;14.77;100.00
76853;BME280;65825;52.232;10.566;2023-08-06T04:48:15;99721.63;;;14.79;100.00
76853;BME280;65825;52.232;10.566;2023-08-06T04:50:46;99726.63;;;14.84;100.00
76853;BME280;65825;52.232;10.566;2023-08-06T04:53:12;99717.94;;;14.68;100.00
76853;BME280;65825;52.232;10.566;2023-08-06T04:55:37;99725.41;;;14.89;100.00
76853;BME280;65825;52.232;10.566;2023-08-06T04:58:03;99719.13;;;14.90;100.00
76853;BME280;65825;52.232;10.566;2023-08-06T05:00:28;99718.09;;;14.93;100.00
76853;BME280;65825;52.232;10.566;2023-08-06T05:02:53;99715.72;;;15.02;100.00
76853;BME280;65825;52.232;10.566;2023-08-06T05:05:19;99715.59;;;15.04;100.00
76853;BME280;65825;52.232;10.566;2023-08-06T05:07:47;99710.13;;;15.19;100.00
76853;BME280;65825;52.232;10.566;2023-08-06T05:10:13;99706.69;;;15.17;100.00
76853;BME280;65825;52.232;10.566;2023-08-06T05:12:38;99701.44;;;15.30;100.00
76853;BME280;65825;52.232;10.566;2023-08-06T05:15:04;99699.81;;;15.41;100.00
76853;BME280;65825;52.232;10.566;2023-08-06T05:17:29;99700.25;;;15.48;100.00
76853;BME280;65825;52.232;10.566;2023-08-06T05:19:55;99695.38;;;15.54;100.00
76853;BME280;65825;52.232;10.566;2023-08-06T05:22:20;99695.78;;;15.61;100.00
76853;BME280;65825;52.232;10.566;2023-08-06T05:24:45;99701.25;;;15.59;100.00
76853;BME280;65825;52.232;10.566;2023-08-06T05:27:10;99698.16;;;15.65;100.00
76853;BME280;65825;52.232;10.566;2023-08-06T05:29:36;99692.09;;;15.63;100.00
76853;BME280;65825;52.232;10.566;2023-08-06T05:32:01;99696.97;;;15.69;100.00
76853;BME280;65825;52.232;10.566;2023-08-06T05:34:26;99697.41;;;15.76;100.00
76853;BME280;65825;52.232;10.566;2023-08-06T05:36:51;99691.81;;;15.93;100.00
76853;BME280;65825;52.232;10.566;2023-08-06T05:39:17;99686.16;;;15.85;100.00
76853;BME280;65825;52.232;10.566;2023-08-06T05:41:43;99686.38;;;15.94;100.00
76853;BME280;65825;52.232;10.566;2023-08-06T05:44:08;99682.34;;;16.01;100.00
76853;BME280;65825;52.232;10.566;2023-08-06T05:46:33;99684.66;;;16.06;100.00
76853;BME280;65825;52.232;10.566;2023-08-06T05:48:59;99685.84;;;16.02;100.00
76853;BME280;65825;52.232;10.566;2023-08-06T05:51:26;99687.22;;;15.82;100.00
76853;BME280;65825;52.232;10.566;2023-08-06T05:53:52;99685.63;;;15.80;100.00
76853;BME280;65825;52.232;10.566;2023-08-06T05:56:17;99690.84;;;15.81;100.00
76853;BME280;65825;52.232;10.566;2023-08-06T05:58:42;99696.59;;;15.88;100.00
76853;BME280;65825;52.232;10.566;2023-08-06T06:01:08;99695.84;;;16.11;100.00
76853;BME280;65825;52.232;10.566;2023-08-06T06:03:33;99693.72;;;16.16;100.00
76853;BME280;65825;52.232;10.566;2023-08-06T06:06:00;99692.22;;;16.24;100.00
76853;BME280;65825;52.232;10.566;2023-08-06T06:08:26;99695.66;;;16.01;100.00
76853;BME280;65825;52.232;10.566;2023-08-06T06:10:51;99696.16;;;16.31;100.00
76853;BME280;65825;52.232;10.566;2023-08-06T06:13:17;99686.59;;;16.16;100.00
76853;BME280;65825;52.232;10.566;2023-08-06T06:15:42;99689.13;;;16.18;100.00
76853;BME280;65825;52.232;10.566;2023-08-06T06:18:07;99695.63;;;16.26;100.00
76853;BME280;65825;52.232;10.566;2023-08-06T06:20:32;99692.13;;;16.26;100.00
76853;BME280;65825;52.232;10.566;2023-08-06T06:22:58;99695.66;;;16.14;100.00
76853;BME280;65825;52.232;10.566;2023-08-06T06:25:24;99685.09;;;16.12;100.00
76853;BME280;65825;52.232;10.566;2023-08-06T06:27:49;99690.53;;;16.11;100.00
76853;BME280;65825;52.232;10.566;2023-08-06T06:30:14;99686.59;;;16.41;100.00
76853;BME280;65825;52.232;10.566;2023-08-06T06:32:39;99689.47;;;16.51;100.00
76853;BME280;65825;52.232;10.566;2023-08-06T06:35:06;99688.03;;;16.70;100.00
76853;BME280;65825;52.232;10.566;2023-08-06T06:37:31;99692.81;;;16.78;100.00
76853;BME280;65825;52.232;10.566;2023-08-06T06:39:56;99688.91;;;16.58;100.00
76853;BME280;65825;52.232;10.566;2023-08-06T06:42:22;99681.22;;;16.90;100.00
76853;BME280;65825;52.232;10.566;2023-08-06T06:44:48;99680.06;;;17.17;100.00
76853;BME280;65825;52.232;10.566;2023-08-06T06:47:13;99682.31;;;17.11;100.00
76853;BME280;65825;52.232;10.566;2023-08-06T06:49:38;99678.25;;;17.18;100.00
76853;BME280;65825;52.232;10.566;2023-08-06T06:52:04;99675.59;;;17.41;100.00
76853;BME280;65825;52.232;10.566;2023-08-06T06:54:29;99673.22;;;17.37;100.00
76853;BME280;65825;52.232;10.566;2023-08-06T06:56:54;99675.31;;;17.68;100.00
76853;BME280;65825;52.232;10.566;2023-08-06T06:59:20;99677.53;;;17.74;100.00
76853;BME280;65825;52.232;10.566;2023-08-06T07:01:45;99678.19;;;17.99;100.00
76853;BME280;65825;52.232;10.566;2023-08-06T07:04:10;99669.47;;;18.19;100.00
76853;BME280;65825;52.232;10.566;2023-08-06T07:06:35;99676.91;;;18.38;100.00
76853;BME280;65825;52.232;10.566;2023-08-06T07:09:01;99667.28;;;18.13;100.00
76853;BME280;65825;52.232;10.566;2023-08-06T07:11:26;99666.22;;;18.38;100.00
76853;BME280;65825;52.232;10.566;2023-08-06T07:13:56;99662.53;;;18.72;100.00
76853;BME280;65825;52.232;10.566;2023-08-06T07:16:22;99665.09;;;18.62;100.00
76853;BME280;65825;52.232;10.566;2023-08-06T07:18:47;99668.59;;;18.85;100.00
76853;BME280;65825;52.232;10.566;2023-08-06T07:21:12;99669.81;;;18.81;100.00
76853;BME280;65825;52.232;10.566;2023-08-06T07:23:37;99673.22;;;18.72;100.00
76853;BME280;65825;52.232;10.566;2023-08-06T07:26:03;99674.63;;;18.44;100.00
76853;BME280;65825;52.232;10.566;2023-08-06T07:28:28;99675.91;;;18.06;100.00
76853;BME280;65825;52.232;10.566;2023-08-06T07:30:53;99675.81;;;18.62;100.00
76853;BME280;65825;52.232;10.566;2023-08-06T07:33:18;99674.91;;;18.95;100.00
76853;BME280;65825;52.232;10.566;2023-08-06T07:35:44;99671.19;;;18.75;100.00
76853;BME280;65825;52.232;10.566;2023-08-06T07:38:09;99670.41;;;19.38;100.00
76853;BME280;65825;52.232;10.566;2023-08-06T07:40:38;99665.91;;;19.38;100.00
76853;BME280;65825;52.232;10.566;2023-08-06T07:43:03;99669.47;;;19.59;99.75
76853;BME280;65825;52.232;10.566;2023-08-06T07:45:33;99669.88;;;19.75;98.08
76853;BME280;65825;52.232;10.566;2023-08-06T07:47:58;99669.84;;;19.96;99.13
76853;BME280;65825;52.232;10.566;2023-08-06T07:50:25;99672.97;;;20.12;93.36
76853;BME280;65825;52.232;10.566;2023-08-06T07:52:50;99674.34;;;20.36;93.35
76853;BME280;65825;52.232;10.566;2023-08-06T07:55:15;99671.66;;;20.76;91.00
76853;BME280;65825;52.232;10.566;2023-08-06T07:57:41;99669.13;;;21.61;94.72
76853;BME280;65825;52.232;10.566;2023-08-06T08:00:06;99672.25;;;22.77;77.35
76853;BME280;65825;52.232;10.566;2023-08-06T08:02:32;99658.44;;;23.69;76.91
76853;BME280;65825;52.232;10.566;2023-08-06T08:04:57;99659.59;;;23.67;69.14
76853;BME280;65825;52.232;10.566;2023-08-06T08:07:22;99663.50;;;24.41;67.34
76853;BME280;65825;52.232;10.566;2023-08-06T08:09:47;99655.84;;;25.69;61.97
76853;BME280;65825;52.232;10.566;2023-08-06T08:12:13;99656.03;;;25.76;63.01
76853;BME280;65825;52.232;10.566;2023-08-06T08:14:39;99659.53;;;24.53;61.41
76853;BME280;65825;52.232;10.566;2023-08-06T08:17:04;99649.09;;;25.81;59.63
76853;BME280;65825;52.232;10.566;2023-08-06T08:19:31;99649.50;;;25.21;59.22
76853;BME280;65825;52.232;10.566;2023-08-06T08:21:56;99653.69;;;24.99;57.69
76853;BME280;65825;52.232;10.566;2023-08-06T08:24:22;99649.72;;;25.27;58.32
76853;BME280;65825;52.232;10.566;2023-08-06T08:26:49;99640.31;;;25.63;56.50
76853;BME280;65825;52.232;10.566;2023-08-06T08:29:15;99643.84;;;26.12;54.85
76853;BME280;65825;52.232;10.566;2023-08-06T08:31:40;99638.59;;;26.10;55.50
76853;BME280;65825;52.232;10.566;2023-08-06T08:34:05;99641.16;;;26.04;57.67
76853;BME280;65825;52.232;10.566;2023-08-06T08:36:31;99637.75;;;26.80;54.98
76853;BME280;65825;52.232;10.566;2023-08-06T08:38:56;99639.53;;;26.49;54.67
76853;BME280;65825;52.232;10.566;2023-08-06T08:41:22;99637.25;;;27.38;51.89
76853;BME280;65825;52.232;10.566;2023-08-06T08:43:50;99626.47;;;26.99;52.68
76853;BME280;65825;52.232;10.566;2023-08-06T08:46:18;99626.47;;;26.69;53.43
76853;BME280;65825;52.232;10.566;2023-08-06T08:48:43;99623.63;;;26.54;53.04
76853;BME280;65825;52.232;10.566;2023-08-06T08:51:09;99622.47;;;25.21;58.65
76853;BME280;65825;52.232;10.566;2023-08-06T08:53:36;99619.66;;;26.18;56.34
76853;BME280;65825;52.232;10.566;2023-08-06T08:56:05;99617.38;;;27.23;56.48
76853;BME280;65825;52.232;10.566;2023-08-06T08:58:30;99616.63;;;27.74;51.48
76853;BME280;65825;52.232;10.566;2023-08-06T09:00:56;99627.81;;;28.88;49.99
76853;BME280;65825;52.232;10.566;2023-08-06T09:03:23;99618.28;;;29.49;47.11
76853;BME280;65825;52.232;10.566;2023-08-06T09:05:51;99621.69;;;29.15;46.63
76853;BME280;65825;52.232;10.566;2023-08-06T09:08:19;99621.16;;;29.41;45.87
76853;BME280;65825;52.232;10.566;2023-08-06T09:10:48;99615.22;;;29.37;47.23
76853;BME280;65825;52.232;10.566;2023-08-06T09:13:13;99618.50;;;29.68;46.56
76853;BME280;65825;52.232;10.566;2023-08-06T09:15:39;99609.94;;;29.71;44.20
76853;BME280;65825;52.232;10.566;2023-08-06T09:18:11;99610.00;;;30.26;42.57
76853;BME280;65825;52.232;10.566;2023-08-06T09:20:38;99602.97;;;30.79;42.53
76853;BME280;65825;52.232;10.566;2023-08-06T09:23:10;99608.41;;;30.38;43.07
76853;BME280;65825;52.232;10.566;2023-08-06T09:25:39;99602.41;;;30.96;41.26
76853;BME280;65825;52.232;10.566;2023-08-06T09:28:07;99605.38;;;31.87;44.87
76853;BME280;65825;52.232;10.566;2023-08-06T09:30:35;99605.19;;;33.97;35.30
76853;BME280;65825;52.232;10.566;2023-08-06T09:33:01;99598.25;;;35.45;33.75
76853;BME280;65825;52.232;10.566;2023-08-06T09:35:30;99596.72;;;35.61;31.04
76853;BME280;65825;52.232;10.566;2023-08-06T09:38:04;99597.19;;;35.58;34.65
76853;BME280;65825;52.232;10.566;2023-08-06T09:40:32;99586.41;;;34.43;36.28
76853;BME280;65825;52.232;10.566;2023-08-06T09:42:58;99591.13;;;35.67;30.79
76853;BME280;65825;52.232;10.566;2023-08-06T09:45:35;99589.66;;;35.83;33.01
76853;BME280;65825;52.232;10.566;2023-08-06T09:48:05;99590.50;;;36.75;30.97
76853;BME280;65825;52.232;10.566;2023-08-06T09:50:32;99592.69;;;31.34;39.77
76853;BME280;65825;52.232;10.566;2023-08-06T09:52:58;99590.25;;;31.78;37.61
76853;BME280;65825;52.232;10.566;2023-08-06T09:55:24;99584.31;;;37.64;31.25
76853;BME280;65825;52.232;10.566;2023-08-06T09:57:51;99580.81;;;39.95;25.70
76853;BME280;65825;52.232;10.566;2023-08-06T10:00:17;99581.22;;;40.50;24.58
76853;BME280;65825;52.232;10.566;2023-08-06T10:02:42;99577.31;;;39.73;23.67
76853;BME280;65825;52.232;10.566;2023-08-06T10:05:09;99567.28;;;40.76;22.51
76853;BME280;65825;52.232;10.566;2023-08-06T10:07:35;99574.50;;;39.99;25.65
76853;BME280;65825;52.232;10.566;2023-08-06T10:10:01;99569.84;;;39.25;25.27
76853;BME280;65825;52.232;10.566;2023-08-06T10:12:30;99572.47;;;39.32;25.14
76853;BME280;65825;52.232;10.566;2023-08-06T10:14:59;99564.84;;;33.18;34.17
76853;BME280;65825;52.232;10.566;2023-08-06T10:17:26;99555.63;;;35.13;31.37
76853;BME280;65825;52.232;10.566;2023-08-06T10:19:52;99562.56;;;40.30;24.47
76853;BME280;65825;52.232;10.566;2023-08-06T10:22:20;99554.19;;;33.10;34.15
76853;BME280;65825;52.232;10.566;2023-08-06T10:27:13;99549.13;;;27.42;44.75
76853;BME280;65825;52.232;10.566;2023-08-06T10:29:39;99549.75;;;26.38;49.33
76853;BME280;65825;52.232;10.566;2023-08-06T10:32:04;99558.91;;;27.28;50.88
76853;BME280;65825;52.232;10.566;2023-08-06T10:34:58;99552.81;;;37.15;31.89
76853;BME280;65825;52.232;10.566;2023-08-06T10:37:24;99545.16;;;40.35;26.41
76853;BME280;65825;52.232;10.566;2023-08-06T10:39:59;99540.38;;;41.73;24.77
76853;BME280;65825;52.232;10.566;2023-08-06T10:42:28;99536.50;;;41.39;25.41
76853;BME280;65825;52.232;10.566;2023-08-06T10:45:13;99533.56;;;32.63;37.11
76853;BME280;65825;52.232;10.566;2023-08-06T10:47:40;99537.56;;;29.28;39.84
76853;BME280;65825;52.232;10.566;2023-08-06T10:50:14;99539.16;;;27.12;42.79
76853;BME280;65825;52.232;10.566;2023-08-06T10:52:42;99533.34;;;26.39;51.16
76853;BME280;65825;52.232;10.566;2023-08-06T10:55:07;99522.00;;;30.66;40.50
76853;BME280;65825;52.232;10.566;2023-08-06T10:57:34;99522.22;;;36.72;28.14
76853;BME280;65825;52.232;10.566;2023-08-06T10:59:59;99515.53;;;38.61;27.44
76853;BME280;65825;52.232;10.566;2023-08-06T11:02:25;99517.22;;;38.24;26.36
76853;BME280;65825;52.232;10.566;2023-08-06T11:04:57;99506.53;;;38.71;27.40
76853;BME280;65825;52.232;10.566;2023-08-06T11:07:22;99507.06;;;38.08;27.10
76853;BME280;65825;52.232;10.566;2023-08-06T11:09:50;99508.06;;;39.89;24.97
76853;BME280;65825;52.232;10.566;2023-08-06T11:12:19;99510.91;;;40.97;25.69
76853;BME280;65825;52.232;10.566;2023-08-06T11:14:49;99500.41;;;41.14;24.97
76853;BME280;65825;52.232;10.566;2023-08-06T11:17:15;99495.47;;;36.84;27.35
76853;BME280;65825;52.232;10.566;2023-08-06T11:19:41;99489.16;;;39.18;25.43
76853;BME280;65825;52.232;10.566;2023-08-06T11:22:06;99491.97;;;36.49;28.46
76853;BME280;65825;52.232;10.566;2023-08-06T11:24:31;99487.78;;;38.30;25.86
76853;BME280;65825;52.232;10.566;2023-08-06T11:26:57;99487.19;;;40.60;24.20
76853;BME280;65825;52.232;10.566;2023-08-06T11:29:22;99478.84;;;40.08;25.29
76853;BME280;65825;52.232;10.566;2023-08-06T11:31:48;99481.63;;;36.28;28.23
76853;BME280;65825;52.232;10.566;2023-08-06T11:34:13;99487.28;;;36.61;30.63
76853;BME280;65825;52.232;10.566;2023-08-06T11:36:40;99478.97;;;39.19;25.46
76853;BME280;65825;52.232;10.566;2023-08-06T11:39:06;99475.78;;;40.05;26.37
76853;BME280;65825;52.232;10.566;2023-08-06T11:41:31;99480.91;;;40.89;24.79
76853;BME280;65825;52.232;10.566;2023-08-06T11:43:58;99478.94;;;34.89;31.71
76853;BME280;65825;52.232;10.566;2023-08-06T11:46:24;99482.53;;;31.48;37.40
76853;BME280;65825;52.232;10.566;2023-08-06T11:48:51;99476.75;;;29.91;39.77
76853;BME280;65825;52.232;10.566;2023-08-06T11:51:17;99478.72;;;34.72;33.90
76853;BME280;65825;52.232;10.566;2023-08-06T11:53:48;99473.94;;;31.25;37.83
76853;BME280;65825;52.232;10.566;2023-08-06T11:56:14;99468.06;;;35.23;30.93
76853;BME280;65825;52.232;10.566;2023-08-06T11:58:41;99466.88;;;39.93;22.57
76853;BME280;65825;52.232;10.566;2023-08-06T12:01:06;99459.59;;;42.35;22.95
76853;BME280;65825;52.232;10.566;2023-08-06T12:03:31;99461.72;;;42.58;20.16
76853;BME280;65825;52.232;10.566;2023-08-06T12:05:57;99460.31;;;42.65;22.12
76853;BME280;65825;52.232;10.566;2023-08-06T12:08:26;99458.28;;;41.97;23.37
76853;BME280;65825;52.232;10.566;2023-08-06T12:10:52;99453.66;;;39.00;25.48
76853;BME280;65825;52.232;10.566;2023-08-06T12:13:18;99446.97;;;32.57;34.77
76853;BME280;65825;52.232;10.566;2023-08-06T12:15:44;99459.00;;;29.67;39.99
76853;BME280;65825;52.232;10.566;2023-08-06T12:18:10;99448.16;;;28.77;44.89
76853;BME280;65825;52.232;10.566;2023-08-06T12:20:35;99450.19;;;27.89;46.22
76853;BME280;65825;52.232;10.566;2023-08-06T12:23:00;99455.91;;;27.43;44.03
76853;BME280;65825;52.232;10.566;2023-08-06T12:25:25;99446.84;;;27.36;45.29
76853;BME280;65825;52.232;10.566;2023-08-06T12:27:51;99442.84;;;28.90;44.71
76853;BME280;65825;52.232;10.566;2023-08-06T12:30:16;99436.38;;;32.30;36.93
76853;BME280;65825;52.232;10.566;2023-08-06T12:32:42;99434.91;;;32.34;38.12
76853;BME280;65825;52.232;10.566;2023-08-06T12:35:08;99433.28;;;29.70;44.75
76853;BME280;65825;52.232;10.566;2023-08-06T12:37:33;99431.91;;;30.94;41.41
76853;BME280;65825;52.232;10.566;2023-08-06T12:39:58;99430.94;;;33.54;33.46
76853;BME280;65825;52.232;10.566;2023-08-06T12:42:24;99433.50;;;37.76;28.83